sensor_id;sensor_type;location;lat;lon;timestamp;P1;durP1;ratioP1;P2;durP2;ratioP2
73776;SDS011;62088;50.240;2.696;2022-10-31T00:01:26;4.68;;;2.00;;
73776;SDS011;62088;50.240;2.696;2022-10-31T00:03:58;6.10;;;2.28;;
73776;SDS011;62088;50.240;2.696;2022-10-31T00:06:25;5.57;;;2.00;;
73776;SDS011;62088;50.240;2.696;2022-10-31T00:08:56;7.93;;;2.05;;
73776;SDS011;62088;50.240;2.696;2022-10-31T00:11:28;6.32;;;2.10;;
73776;SDS011;62088;50.240;2.696;2022-10-31T00:13:56;5.18;;;1.80;;
73776;SDS011;62088;50.240;2.696;2022-10-31T00:16:25;5.45;;;1.98;;
73776;SDS011;62088;50.240;2.696;2022-10-31T00:18:54;4.25;;;2.05;;
73776;SDS011;62088;50.240;2.696;2022-10-31T00:21:24;5.93;;;1.95;;
73776;SDS011;62088;50.240;2.696;2022-10-31T00:23:51;5.93;;;1.60;;
73776;SDS011;62088;50.240;2.696;2022-10-31T00:26:19;5.63;;;1.77;;
73776;SDS011;62088;50.240;2.696;2022-10-31T00:28:46;6.43;;;2.03;;
73776;SDS011;62088;50.240;2.696;2022-10-31T00:31:13;6.18;;;2.20;;
73776;SDS011;62088;50.240;2.696;2022-10-31T00:33:40;3.42;;;1.55;;
73776;SDS011;62088;50.240;2.696;2022-10-31T00:36:10;5.15;;;2.13;;
73776;SDS011;62088;50.240;2.696;2022-10-31T00:38:42;6.80;;;2.38;;
73776;SDS011;62088;50.240;2.696;2022-10-31T00:41:10;4.95;;;1.88;;
73776;SDS011;62088;50.240;2.696;2022-10-31T00:43:40;4.15;;;1.90;;
73776;SDS011;62088;50.240;2.696;2022-10-31T00:46:07;6.35;;;2.72;;
73776;SDS011;62088;50.240;2.696;2022-10-31T00:48:35;5.45;;;1.85;;
73776;SDS011;62088;50.240;2.696;2022-10-31T00:51:02;7.95;;;2.00;;
73776;SDS011;62088;50.240;2.696;2022-10-31T00:53:29;5.72;;;2.20;;
73776;SDS011;62088;50.240;2.696;2022-10-31T00:55:56;7.75;;;2.10;;
73776;SDS011;62088;50.240;2.696;2022-10-31T00:58:23;4.47;;;2.30;;
73776;SDS011;62088;50.240;2.696;2022-10-31T01:00:51;5.35;;;2.10;;
73776;SDS011;62088;50.240;2.696;2022-10-31T01:03:22;5.13;;;2.05;;
73776;SDS011;62088;50.240;2.696;2022-10-31T01:08:32;4.55;;;2.05;;
73776;SDS011;62088;50.240;2.696;2022-10-31T01:13:31;5.07;;;1.95;;
73776;SDS011;62088;50.240;2.696;2022-10-31T01:16:00;4.95;;;1.60;;
73776;SDS011;62088;50.240;2.696;2022-10-31T01:18:30;8.05;;;2.17;;
73776;SDS011;62088;50.240;2.696;2022-10-31T01:21:02;8.57;;;2.20;;
73776;SDS011;62088;50.240;2.696;2022-10-31T01:23:34;5.03;;;2.08;;
73776;SDS011;62088;50.240;2.696;2022-10-31T01:26:10;5.65;;;2.17;;
73776;SDS011;62088;50.240;2.696;2022-10-31T01:28:46;7.15;;;2.25;;
73776;SDS011;62088;50.240;2.696;2022-10-31T01:31:17;6.22;;;2.08;;
73776;SDS011;62088;50.240;2.696;2022-10-31T01:33:45;5.93;;;2.30;;
73776;SDS011;62088;50.240;2.696;2022-10-31T01:36:17;9.38;;;2.10;;
73776;SDS011;62088;50.240;2.696;2022-10-31T01:38:50;5.80;;;2.30;;
73776;SDS011;62088;50.240;2.696;2022-10-31T01:41:19;6.00;;;2.17;;
73776;SDS011;62088;50.240;2.696;2022-10-31T01:43:52;5.93;;;2.40;;
73776;SDS011;62088;50.240;2.696;2022-10-31T01:46:33;8.70;;;2.60;;
73776;SDS011;62088;50.240;2.696;2022-10-31T01:49:09;4.30;;;2.22;;
73776;SDS011;62088;50.240;2.696;2022-10-31T01:51:42;7.15;;;2.50;;
73776;SDS011;62088;50.240;2.696;2022-10-31T01:54:31;5.60;;;2.50;;
73776;SDS011;62088;50.240;2.696;2022-10-31T01:57:03;7.07;;;2.13;;
73776;SDS011;62088;50.240;2.696;2022-10-31T01:59:32;5.13;;;2.00;;
73776;SDS011;62088;50.240;2.696;2022-10-31T02:02:01;6.53;;;2.50;;
73776;SDS011;62088;50.240;2.696;2022-10-31T02:04:29;4.05;;;2.13;;
73776;SDS011;62088;50.240;2.696;2022-10-31T02:07:05;5.63;;;2.15;;
73776;SDS011;62088;50.240;2.696;2022-10-31T02:09:47;5.70;;;2.10;;
73776;SDS011;62088;50.240;2.696;2022-10-31T02:12:15;6.30;;;2.47;;
73776;SDS011;62088;50.240;2.696;2022-10-31T02:14:44;5.82;;;2.30;;
73776;SDS011;62088;50.240;2.696;2022-10-31T02:17:11;5.68;;;2.50;;
73776;SDS011;62088;50.240;2.696;2022-10-31T02:33:44;6.95;;;2.60;;
73776;SDS011;62088;50.240;2.696;2022-10-31T02:41:50;4.38;;;2.40;;
73776;SDS011;62088;50.240;2.696;2022-10-31T02:49:30;8.55;;;2.55;;
73776;SDS011;62088;50.240;2.696;2022-10-31T02:52:12;6.13;;;3.00;;
73776;SDS011;62088;50.240;2.696;2022-10-31T02:58:19;7.07;;;3.28;;
73776;SDS011;62088;50.240;2.696;2022-10-31T03:03:58;5.25;;;3.10;;
73776;SDS011;62088;50.240;2.696;2022-10-31T03:09:15;8.45;;;3.30;;
73776;SDS011;62088;50.240;2.696;2022-10-31T03:12:07;6.50;;;3.30;;
73776;SDS011;62088;50.240;2.696;2022-10-31T03:20:14;6.40;;;2.92;;
73776;SDS011;62088;50.240;2.696;2022-10-31T03:22:48;6.53;;;3.42;;
73776;SDS011;62088;50.240;2.696;2022-10-31T03:25:15;6.47;;;3.80;;
73776;SDS011;62088;50.240;2.696;2022-10-31T03:27:44;5.55;;;3.40;;
73776;SDS011;62088;50.240;2.696;2022-10-31T03:30:13;6.45;;;3.35;;
73776;SDS011;62088;50.240;2.696;2022-10-31T03:32:54;5.95;;;3.08;;
73776;SDS011;62088;50.240;2.696;2022-10-31T03:35:24;8.45;;;3.08;;
73776;SDS011;62088;50.240;2.696;2022-10-31T03:37:54;6.57;;;3.63;;
73776;SDS011;62088;50.240;2.696;2022-10-31T03:40:22;5.57;;;3.30;;
73776;SDS011;62088;50.240;2.696;2022-10-31T03:42:58;7.25;;;3.42;;
73776;SDS011;62088;50.240;2.696;2022-10-31T03:45:31;6.53;;;3.58;;
73776;SDS011;62088;50.240;2.696;2022-10-31T03:48:02;6.45;;;3.83;;
73776;SDS011;62088;50.240;2.696;2022-10-31T03:51:14;11.32;;;3.75;;
73776;SDS011;62088;50.240;2.696;2022-10-31T03:53:32;8.75;;;3.67;;
73776;SDS011;62088;50.240;2.696;2022-10-31T03:56:11;8.35;;;4.05;;
73776;SDS011;62088;50.240;2.696;2022-10-31T03:58:57;10.40;;;4.20;;
73776;SDS011;62088;50.240;2.696;2022-10-31T04:01:34;7.80;;;4.65;;
73776;SDS011;62088;50.240;2.696;2022-10-31T04:04:06;6.30;;;3.92;;
73776;SDS011;62088;50.240;2.696;2022-10-31T04:06:34;8.15;;;4.47;;
73776;SDS011;62088;50.240;2.696;2022-10-31T04:09:05;8.60;;;3.95;;
73776;SDS011;62088;50.240;2.696;2022-10-31T04:11:36;6.57;;;4.15;;
73776;SDS011;62088;50.240;2.696;2022-10-31T04:14:27;9.60;;;4.45;;
73776;SDS011;62088;50.240;2.696;2022-10-31T04:16:58;9.10;;;4.78;;
73776;SDS011;62088;50.240;2.696;2022-10-31T04:19:33;15.55;;;4.85;;
73776;SDS011;62088;50.240;2.696;2022-10-31T04:22:00;6.78;;;4.03;;
73776;SDS011;62088;50.240;2.696;2022-10-31T04:24:28;6.03;;;3.97;;
73776;SDS011;62088;50.240;2.696;2022-10-31T04:26:55;13.27;;;4.43;;
73776;SDS011;62088;50.240;2.696;2022-10-31T04:29:22;6.00;;;3.92;;
73776;SDS011;62088;50.240;2.696;2022-10-31T04:31:49;8.82;;;4.20;;
73776;SDS011;62088;50.240;2.696;2022-10-31T04:34:17;6.55;;;3.83;;
73776;SDS011;62088;50.240;2.696;2022-10-31T04:36:44;7.28;;;3.83;;
73776;SDS011;62088;50.240;2.696;2022-10-31T04:39:13;9.32;;;4.50;;
73776;SDS011;62088;50.240;2.696;2022-10-31T04:41:47;8.70;;;4.07;;
73776;SDS011;62088;50.240;2.696;2022-10-31T04:44:14;6.13;;;3.50;;
73776;SDS011;62088;50.240;2.696;2022-10-31T04:46:44;9.95;;;4.63;;
73776;SDS011;62088;50.240;2.696;2022-10-31T04:49:11;6.88;;;4.22;;
73776;SDS011;62088;50.240;2.696;2022-10-31T04:51:39;9.07;;;4.28;;
73776;SDS011;62088;50.240;2.696;2022-10-31T04:54:08;7.53;;;4.03;;
73776;SDS011;62088;50.240;2.696;2022-10-31T04:56:37;6.78;;;4.00;;
73776;SDS011;62088;50.240;2.696;2022-10-31T04:59:11;7.13;;;3.70;;
73776;SDS011;62088;50.240;2.696;2022-10-31T05:01:48;12.85;;;4.20;;
73776;SDS011;62088;50.240;2.696;2022-10-31T05:04:20;5.93;;;3.88;;
73776;SDS011;62088;50.240;2.696;2022-10-31T05:06:47;7.85;;;4.38;;
73776;SDS011;62088;50.240;2.696;2022-10-31T05:09:14;7.32;;;3.80;;
73776;SDS011;62088;50.240;2.696;2022-10-31T05:11:42;6.95;;;4.38;;
73776;SDS011;62088;50.240;2.696;2022-10-31T05:14:31;7.20;;;4.22;;
73776;SDS011;62088;50.240;2.696;2022-10-31T05:17:33;8.15;;;4.30;;
73776;SDS011;62088;50.240;2.696;2022-10-31T05:20:21;7.95;;;4.07;;
73776;SDS011;62088;50.240;2.696;2022-10-31T05:23:13;6.40;;;3.95;;
73776;SDS011;62088;50.240;2.696;2022-10-31T05:25:40;5.80;;;3.95;;
73776;SDS011;62088;50.240;2.696;2022-10-31T05:28:08;8.73;;;3.95;;
73776;SDS011;62088;50.240;2.696;2022-10-31T05:30:35;6.68;;;4.38;;
73776;SDS011;62088;50.240;2.696;2022-10-31T05:33:03;9.27;;;3.90;;
73776;SDS011;62088;50.240;2.696;2022-10-31T05:35:39;7.65;;;4.20;;
73776;SDS011;62088;50.240;2.696;2022-10-31T05:38:29;7.70;;;3.63;;
73776;SDS011;62088;50.240;2.696;2022-10-31T05:41:01;7.40;;;4.05;;
73776;SDS011;62088;50.240;2.696;2022-10-31T05:43:31;8.60;;;4.57;;
73776;SDS011;62088;50.240;2.696;2022-10-31T05:46:00;7.88;;;4.38;;
73776;SDS011;62088;50.240;2.696;2022-10-31T05:48:59;10.15;;;6.13;;
73776;SDS011;62088;50.240;2.696;2022-10-31T05:51:47;18.75;;;10.82;;
73776;SDS011;62088;50.240;2.696;2022-10-31T05:54:14;18.88;;;12.25;;
73776;SDS011;62088;50.240;2.696;2022-10-31T05:56:44;15.52;;;9.27;;
73776;SDS011;62088;50.240;2.696;2022-10-31T05:59:11;13.95;;;8.57;;
73776;SDS011;62088;50.240;2.696;2022-10-31T06:01:39;16.60;;;8.98;;
73776;SDS011;62088;50.240;2.696;2022-10-31T06:04:18;16.73;;;10.25;;
73776;SDS011;62088;50.240;2.696;2022-10-31T06:06:45;17.60;;;9.75;;
73776;SDS011;62088;50.240;2.696;2022-10-31T06:09:12;23.75;;;10.20;;
73776;SDS011;62088;50.240;2.696;2022-10-31T06:11:40;13.23;;;8.55;;
73776;SDS011;62088;50.240;2.696;2022-10-31T06:14:07;12.68;;;7.95;;
73776;SDS011;62088;50.240;2.696;2022-10-31T06:16:48;14.63;;;8.38;;
73776;SDS011;62088;50.240;2.696;2022-10-31T06:19:50;14.15;;;6.93;;
73776;SDS011;62088;50.240;2.696;2022-10-31T06:22:20;14.50;;;6.55;;
73776;SDS011;62088;50.240;2.696;2022-10-31T06:24:46;11.38;;;6.43;;
73776;SDS011;62088;50.240;2.696;2022-10-31T06:27:33;10.48;;;5.38;;
73776;SDS011;62088;50.240;2.696;2022-10-31T06:32:35;10.20;;;5.07;;
73776;SDS011;62088;50.240;2.696;2022-10-31T06:35:03;9.43;;;5.20;;
73776;SDS011;62088;50.240;2.696;2022-10-31T06:37:32;12.85;;;4.50;;
73776;SDS011;62088;50.240;2.696;2022-10-31T06:40:07;14.10;;;6.65;;
73776;SDS011;62088;50.240;2.696;2022-10-31T06:43:01;11.48;;;5.28;;
73776;SDS011;62088;50.240;2.696;2022-10-31T06:45:29;9.07;;;5.10;;
73776;SDS011;62088;50.240;2.696;2022-10-31T06:48:12;8.65;;;5.35;;
73776;SDS011;62088;50.240;2.696;2022-10-31T06:51:19;7.78;;;4.97;;
73776;SDS011;62088;50.240;2.696;2022-10-31T06:53:49;7.60;;;4.60;;
73776;SDS011;62088;50.240;2.696;2022-10-31T06:56:17;7.65;;;4.78;;
73776;SDS011;62088;50.240;2.696;2022-10-31T06:58:48;8.30;;;5.82;;
73776;SDS011;62088;50.240;2.696;2022-10-31T07:01:23;8.88;;;6.78;;
73776;SDS011;62088;50.240;2.696;2022-10-31T07:03:51;10.65;;;5.78;;
73776;SDS011;62088;50.240;2.696;2022-10-31T07:06:17;13.50;;;6.80;;
73776;SDS011;62088;50.240;2.696;2022-10-31T07:08:44;11.25;;;6.45;;
73776;SDS011;62088;50.240;2.696;2022-10-31T07:11:12;9.90;;;7.03;;
73776;SDS011;62088;50.240;2.696;2022-10-31T07:13:39;10.65;;;7.10;;
73776;SDS011;62088;50.240;2.696;2022-10-31T07:16:06;8.50;;;6.20;;
73776;SDS011;62088;50.240;2.696;2022-10-31T07:18:34;8.52;;;6.45;;
73776;SDS011;62088;50.240;2.696;2022-10-31T07:21:03;9.75;;;7.10;;
73776;SDS011;62088;50.240;2.696;2022-10-31T07:23:30;8.23;;;6.93;;
73776;SDS011;62088;50.240;2.696;2022-10-31T07:29:02;10.38;;;7.97;;
73776;SDS011;62088;50.240;2.696;2022-10-31T07:31:29;16.05;;;10.63;;
73776;SDS011;62088;50.240;2.696;2022-10-31T07:34:02;13.10;;;10.68;;
73776;SDS011;62088;50.240;2.696;2022-10-31T07:36:47;17.30;;;12.70;;
73776;SDS011;62088;50.240;2.696;2022-10-31T07:39:16;17.52;;;11.27;;
73776;SDS011;62088;50.240;2.696;2022-10-31T07:41:44;14.65;;;11.48;;
73776;SDS011;62088;50.240;2.696;2022-10-31T07:44:16;12.80;;;10.55;;
73776;SDS011;62088;50.240;2.696;2022-10-31T07:47:18;19.63;;;12.65;;
73776;SDS011;62088;50.240;2.696;2022-10-31T07:50:03;14.75;;;11.15;;
73776;SDS011;62088;50.240;2.696;2022-10-31T07:53:10;16.27;;;11.23;;
73776;SDS011;62088;50.240;2.696;2022-10-31T07:55:39;13.52;;;10.55;;
73776;SDS011;62088;50.240;2.696;2022-10-31T07:58:08;16.30;;;11.52;;
73776;SDS011;62088;50.240;2.696;2022-10-31T08:00:39;15.57;;;11.25;;
73776;SDS011;62088;50.240;2.696;2022-10-31T08:03:11;14.13;;;11.10;;
73776;SDS011;62088;50.240;2.696;2022-10-31T08:06:02;15.50;;;12.23;;
73776;SDS011;62088;50.240;2.696;2022-10-31T08:08:52;15.55;;;13.43;;
73776;SDS011;62088;50.240;2.696;2022-10-31T08:11:19;23.63;;;16.40;;
73776;SDS011;62088;50.240;2.696;2022-10-31T08:13:46;19.92;;;15.00;;
73776;SDS011;62088;50.240;2.696;2022-10-31T08:16:14;21.13;;;14.15;;
73776;SDS011;62088;50.240;2.696;2022-10-31T08:18:57;20.95;;;13.82;;
73776;SDS011;62088;50.240;2.696;2022-10-31T08:21:27;15.35;;;13.20;;
73776;SDS011;62088;50.240;2.696;2022-10-31T08:23:53;20.70;;;15.38;;
73776;SDS011;62088;50.240;2.696;2022-10-31T08:26:23;25.35;;;17.60;;
73776;SDS011;62088;50.240;2.696;2022-10-31T08:28:52;25.27;;;19.02;;
73776;SDS011;62088;50.240;2.696;2022-10-31T08:31:22;22.15;;;17.50;;
73776;SDS011;62088;50.240;2.696;2022-10-31T08:34:14;29.90;;;23.15;;
73776;SDS011;62088;50.240;2.696;2022-10-31T08:37:03;30.90;;;21.45;;
73776;SDS011;62088;50.240;2.696;2022-10-31T08:39:52;30.88;;;22.35;;
73776;SDS011;62088;50.240;2.696;2022-10-31T08:42:20;23.70;;;18.38;;
73776;SDS011;62088;50.240;2.696;2022-10-31T08:44:47;24.08;;;17.02;;
73776;SDS011;62088;50.240;2.696;2022-10-31T08:47:14;22.95;;;16.33;;
73776;SDS011;62088;50.240;2.696;2022-10-31T08:49:40;22.65;;;17.80;;
73776;SDS011;62088;50.240;2.696;2022-10-31T08:52:08;23.88;;;17.15;;
73776;SDS011;62088;50.240;2.696;2022-10-31T08:54:40;23.52;;;17.55;;
73776;SDS011;62088;50.240;2.696;2022-10-31T08:57:36;21.83;;;18.20;;
73776;SDS011;62088;50.240;2.696;2022-10-31T09:00:03;21.92;;;16.58;;
73776;SDS011;62088;50.240;2.696;2022-10-31T09:02:55;22.75;;;16.38;;
73776;SDS011;62088;50.240;2.696;2022-10-31T09:05:28;24.17;;;16.23;;
73776;SDS011;62088;50.240;2.696;2022-10-31T09:08:00;34.22;;;17.52;;
73776;SDS011;62088;50.240;2.696;2022-10-31T09:10:29;22.43;;;15.07;;
73776;SDS011;62088;50.240;2.696;2022-10-31T09:13:01;22.73;;;16.38;;
73776;SDS011;62088;50.240;2.696;2022-10-31T09:15:51;25.45;;;16.00;;
73776;SDS011;62088;50.240;2.696;2022-10-31T09:18:22;21.30;;;16.95;;
73776;SDS011;62088;50.240;2.696;2022-10-31T09:20:59;21.25;;;17.35;;
73776;SDS011;62088;50.240;2.696;2022-10-31T09:23:29;21.95;;;16.98;;
73776;SDS011;62088;50.240;2.696;2022-10-31T09:25:59;26.35;;;17.25;;
73776;SDS011;62088;50.240;2.696;2022-10-31T09:28:59;22.00;;;16.88;;
73776;SDS011;62088;50.240;2.696;2022-10-31T09:31:29;22.80;;;17.55;;
73776;SDS011;62088;50.240;2.696;2022-10-31T09:34:05;22.80;;;16.80;;
73776;SDS011;62088;50.240;2.696;2022-10-31T09:36:35;23.92;;;16.42;;
73776;SDS011;62088;50.240;2.696;2022-10-31T09:39:06;23.13;;;17.45;;
73776;SDS011;62088;50.240;2.696;2022-10-31T09:44:11;25.85;;;18.23;;
73776;SDS011;62088;50.240;2.696;2022-10-31T09:46:50;21.33;;;17.45;;
73776;SDS011;62088;50.240;2.696;2022-10-31T09:52:04;27.42;;;18.48;;
73776;SDS011;62088;50.240;2.696;2022-10-31T09:57:30;26.55;;;18.85;;
73776;SDS011;62088;50.240;2.696;2022-10-31T10:00:04;23.85;;;19.67;;
73776;SDS011;62088;50.240;2.696;2022-10-31T10:02:53;32.97;;;22.20;;
73776;SDS011;62088;50.240;2.696;2022-10-31T10:05:29;31.13;;;22.98;;
73776;SDS011;62088;50.240;2.696;2022-10-31T10:08:09;28.50;;;21.23;;
73776;SDS011;62088;50.240;2.696;2022-10-31T10:20:15;23.95;;;18.85;;
73776;SDS011;62088;50.240;2.696;2022-10-31T10:23:14;29.73;;;20.92;;
73776;SDS011;62088;50.240;2.696;2022-10-31T10:25:47;28.73;;;20.60;;
73776;SDS011;62088;50.240;2.696;2022-10-31T10:28:23;23.00;;;18.00;;
73776;SDS011;62088;50.240;2.696;2022-10-31T10:31:12;27.77;;;18.50;;
73776;SDS011;62088;50.240;2.696;2022-10-31T10:33:44;26.85;;;18.05;;
73776;SDS011;62088;50.240;2.696;2022-10-31T10:36:28;24.40;;;17.50;;
73776;SDS011;62088;50.240;2.696;2022-10-31T10:39:18;26.15;;;18.85;;
73776;SDS011;62088;50.240;2.696;2022-10-31T10:41:49;23.02;;;16.75;;
73776;SDS011;62088;50.240;2.696;2022-10-31T10:44:40;23.48;;;15.25;;
73776;SDS011;62088;50.240;2.696;2022-10-31T10:47:33;21.58;;;15.63;;
73776;SDS011;62088;50.240;2.696;2022-10-31T10:50:15;24.42;;;15.45;;
73776;SDS011;62088;50.240;2.696;2022-10-31T10:52:53;22.35;;;14.40;;
73776;SDS011;62088;50.240;2.696;2022-10-31T10:56:00;22.83;;;13.45;;
73776;SDS011;62088;50.240;2.696;2022-10-31T10:58:43;20.65;;;13.30;;
73776;SDS011;62088;50.240;2.696;2022-10-31T11:01:12;22.30;;;12.77;;
73776;SDS011;62088;50.240;2.696;2022-10-31T11:03:45;19.52;;;12.95;;
73776;SDS011;62088;50.240;2.696;2022-10-31T11:06:18;16.38;;;12.80;;
73776;SDS011;62088;50.240;2.696;2022-10-31T11:08:52;20.05;;;12.88;;
73776;SDS011;62088;50.240;2.696;2022-10-31T11:11:26;16.23;;;11.98;;
73776;SDS011;62088;50.240;2.696;2022-10-31T11:13:58;16.48;;;11.30;;
73776;SDS011;62088;50.240;2.696;2022-10-31T11:16:35;18.48;;;12.07;;
73776;SDS011;62088;50.240;2.696;2022-10-31T11:19:16;18.33;;;11.20;;
73776;SDS011;62088;50.240;2.696;2022-10-31T11:21:44;18.35;;;11.80;;
73776;SDS011;62088;50.240;2.696;2022-10-31T11:24:20;18.95;;;12.30;;
73776;SDS011;62088;50.240;2.696;2022-10-31T11:26:50;15.98;;;12.40;;
73776;SDS011;62088;50.240;2.696;2022-10-31T11:29:24;19.85;;;10.88;;
73776;SDS011;62088;50.240;2.696;2022-10-31T11:31:53;18.73;;;10.95;;
73776;SDS011;62088;50.240;2.696;2022-10-31T11:34:35;18.23;;;10.82;;
73776;SDS011;62088;50.240;2.696;2022-10-31T11:37:09;13.55;;;10.07;;
73776;SDS011;62088;50.240;2.696;2022-10-31T11:39:49;18.80;;;10.80;;
73776;SDS011;62088;50.240;2.696;2022-10-31T11:42:21;22.80;;;10.57;;
73776;SDS011;62088;50.240;2.696;2022-10-31T11:44:51;20.90;;;11.25;;
73776;SDS011;62088;50.240;2.696;2022-10-31T11:47:27;16.60;;;10.57;;
73776;SDS011;62088;50.240;2.696;2022-10-31T11:49:56;14.95;;;11.15;;
73776;SDS011;62088;50.240;2.696;2022-10-31T11:52:28;19.70;;;11.20;;
73776;SDS011;62088;50.240;2.696;2022-10-31T11:57:46;15.55;;;10.30;;
73776;SDS011;62088;50.240;2.696;2022-10-31T12:00:25;17.75;;;10.45;;
73776;SDS011;62088;50.240;2.696;2022-10-31T12:05:52;17.95;;;10.02;;
73776;SDS011;62088;50.240;2.696;2022-10-31T12:08:30;15.98;;;11.13;;
73776;SDS011;62088;50.240;2.696;2022-10-31T12:19:32;16.15;;;10.60;;
73776;SDS011;62088;50.240;2.696;2022-10-31T12:30:33;20.60;;;11.73;;
73776;SDS011;62088;50.240;2.696;2022-10-31T12:38:51;17.58;;;11.20;;
73776;SDS011;62088;50.240;2.696;2022-10-31T12:52:57;20.23;;;12.68;;
73776;SDS011;62088;50.240;2.696;2022-10-31T12:58:26;24.60;;;12.05;;
73776;SDS011;62088;50.240;2.696;2022-10-31T13:01:02;23.50;;;11.40;;
73776;SDS011;62088;50.240;2.696;2022-10-31T13:06:36;19.63;;;11.55;;
73776;SDS011;62088;50.240;2.696;2022-10-31T13:09:11;16.85;;;10.15;;
73776;SDS011;62088;50.240;2.696;2022-10-31T13:11:53;22.50;;;11.93;;
73776;SDS011;62088;50.240;2.696;2022-10-31T13:17:05;19.75;;;11.45;;
73776;SDS011;62088;50.240;2.696;2022-10-31T13:19:40;16.77;;;10.45;;
73776;SDS011;62088;50.240;2.696;2022-10-31T13:22:10;18.05;;;10.13;;
73776;SDS011;62088;50.240;2.696;2022-10-31T13:30:51;25.88;;;12.55;;
73776;SDS011;62088;50.240;2.696;2022-10-31T13:33:27;25.08;;;11.65;;
73776;SDS011;62088;50.240;2.696;2022-10-31T13:41:34;22.45;;;11.85;;
73776;SDS011;62088;50.240;2.696;2022-10-31T13:44:22;18.33;;;10.57;;
73776;SDS011;62088;50.240;2.696;2022-10-31T13:46:54;17.95;;;10.57;;
73776;SDS011;62088;50.240;2.696;2022-10-31T13:52:05;15.38;;;10.43;;
73776;SDS011;62088;50.240;2.696;2022-10-31T13:54:39;17.23;;;10.40;;
73776;SDS011;62088;50.240;2.696;2022-10-31T13:57:06;19.02;;;10.25;;
73776;SDS011;62088;50.240;2.696;2022-10-31T13:59:51;18.92;;;10.13;;
73776;SDS011;62088;50.240;2.696;2022-10-31T14:02:25;16.58;;;9.30;;
73776;SDS011;62088;50.240;2.696;2022-10-31T14:04:56;18.73;;;9.70;;
73776;SDS011;62088;50.240;2.696;2022-10-31T14:07:41;19.65;;;10.25;;
73776;SDS011;62088;50.240;2.696;2022-10-31T14:10:26;23.92;;;9.27;;
73776;SDS011;62088;50.240;2.696;2022-10-31T14:13:12;16.75;;;9.57;;
73776;SDS011;62088;50.240;2.696;2022-10-31T14:15:53;15.32;;;8.38;;
73776;SDS011;62088;50.240;2.696;2022-10-31T14:18:33;16.88;;;7.47;;
73776;SDS011;62088;50.240;2.696;2022-10-31T14:21:12;13.82;;;7.10;;
73776;SDS011;62088;50.240;2.696;2022-10-31T14:23:49;16.38;;;7.20;;
73776;SDS011;62088;50.240;2.696;2022-10-31T14:31:42;17.08;;;7.00;;
73776;SDS011;62088;50.240;2.696;2022-10-31T14:39:51;18.77;;;7.78;;
73776;SDS011;62088;50.240;2.696;2022-10-31T14:53:12;17.77;;;6.90;;
73776;SDS011;62088;50.240;2.696;2022-10-31T14:55:59;13.65;;;6.35;;
73776;SDS011;62088;50.240;2.696;2022-10-31T14:58:39;16.85;;;6.88;;
73776;SDS011;62088;50.240;2.696;2022-10-31T15:01:17;15.75;;;6.22;;
73776;SDS011;62088;50.240;2.696;2022-10-31T15:04:04;19.50;;;6.97;;
73776;SDS011;62088;50.240;2.696;2022-10-31T15:06:54;22.27;;;7.22;;
73776;SDS011;62088;50.240;2.696;2022-10-31T15:09:34;16.75;;;7.28;;
73776;SDS011;62088;50.240;2.696;2022-10-31T15:15:11;16.92;;;6.95;;
73776;SDS011;62088;50.240;2.696;2022-10-31T15:17:41;16.48;;;7.05;;
73776;SDS011;62088;50.240;2.696;2022-10-31T15:20:21;15.15;;;7.90;;
73776;SDS011;62088;50.240;2.696;2022-10-31T15:22:53;22.35;;;6.95;;
73776;SDS011;62088;50.240;2.696;2022-10-31T15:25:24;15.60;;;7.35;;
73776;SDS011;62088;50.240;2.696;2022-10-31T15:27:56;19.25;;;7.53;;
73776;SDS011;62088;50.240;2.696;2022-10-31T15:30:24;16.98;;;7.65;;
73776;SDS011;62088;50.240;2.696;2022-10-31T15:32:52;17.58;;;7.72;;
73776;SDS011;62088;50.240;2.696;2022-10-31T15:35:28;17.30;;;7.15;;
73776;SDS011;62088;50.240;2.696;2022-10-31T15:37:57;18.98;;;7.70;;
73776;SDS011;62088;50.240;2.696;2022-10-31T15:40:26;19.00;;;7.28;;
73776;SDS011;62088;50.240;2.696;2022-10-31T15:42:57;17.73;;;8.10;;
73776;SDS011;62088;50.240;2.696;2022-10-31T15:45:28;15.05;;;8.27;;
73776;SDS011;62088;50.240;2.696;2022-10-31T15:48:03;18.30;;;8.60;;
73776;SDS011;62088;50.240;2.696;2022-10-31T15:50:50;18.40;;;8.48;;
73776;SDS011;62088;50.240;2.696;2022-10-31T15:53:24;17.67;;;8.45;;
73776;SDS011;62088;50.240;2.696;2022-10-31T15:56:03;26.90;;;8.25;;
73776;SDS011;62088;50.240;2.696;2022-10-31T15:58:42;20.08;;;8.82;;
73776;SDS011;62088;50.240;2.696;2022-10-31T16:01:22;20.27;;;8.75;;
73776;SDS011;62088;50.240;2.696;2022-10-31T16:04:01;19.48;;;8.23;;
73776;SDS011;62088;50.240;2.696;2022-10-31T16:06:34;19.75;;;8.85;;
73776;SDS011;62088;50.240;2.696;2022-10-31T16:09:02;18.08;;;8.07;;
73776;SDS011;62088;50.240;2.696;2022-10-31T16:11:39;19.70;;;9.10;;
73776;SDS011;62088;50.240;2.696;2022-10-31T16:14:15;18.77;;;8.20;;
73776;SDS011;62088;50.240;2.696;2022-10-31T16:16:51;19.90;;;7.47;;
73776;SDS011;62088;50.240;2.696;2022-10-31T16:19:28;16.27;;;8.00;;
73776;SDS011;62088;50.240;2.696;2022-10-31T16:22:03;21.10;;;7.63;;
73776;SDS011;62088;50.240;2.696;2022-10-31T16:24:34;16.75;;;7.63;;
73776;SDS011;62088;50.240;2.696;2022-10-31T16:27:18;15.65;;;7.57;;
73776;SDS011;62088;50.240;2.696;2022-10-31T16:29:51;16.10;;;8.55;;
73776;SDS011;62088;50.240;2.696;2022-10-31T16:35:00;20.10;;;8.38;;
73776;SDS011;62088;50.240;2.696;2022-10-31T16:37:36;20.98;;;9.25;;
73776;SDS011;62088;50.240;2.696;2022-10-31T16:40:11;20.60;;;9.23;;
73776;SDS011;62088;50.240;2.696;2022-10-31T16:42:42;22.13;;;9.10;;
73776;SDS011;62088;50.240;2.696;2022-10-31T16:45:15;20.08;;;9.25;;
73776;SDS011;62088;50.240;2.696;2022-10-31T16:47:46;18.80;;;8.93;;
73776;SDS011;62088;50.240;2.696;2022-10-31T16:50:16;22.13;;;9.20;;
73776;SDS011;62088;50.240;2.696;2022-10-31T16:52:46;22.20;;;9.10;;
73776;SDS011;62088;50.240;2.696;2022-10-31T16:55:33;20.05;;;9.30;;
73776;SDS011;62088;50.240;2.696;2022-10-31T16:58:03;17.52;;;8.98;;
73776;SDS011;62088;50.240;2.696;2022-10-31T17:00:30;21.05;;;8.85;;
73776;SDS011;62088;50.240;2.696;2022-10-31T17:02:57;18.95;;;8.18;;
73776;SDS011;62088;50.240;2.696;2022-10-31T17:05:24;17.90;;;8.27;;
73776;SDS011;62088;50.240;2.696;2022-10-31T17:07:58;21.88;;;8.57;;
73776;SDS011;62088;50.240;2.696;2022-10-31T17:10:26;22.55;;;8.60;;
73776;SDS011;62088;50.240;2.696;2022-10-31T17:12:53;18.15;;;8.10;;
73776;SDS011;62088;50.240;2.696;2022-10-31T17:15:23;15.98;;;7.78;;
73776;SDS011;62088;50.240;2.696;2022-10-31T17:17:52;23.85;;;8.77;;
73776;SDS011;62088;50.240;2.696;2022-10-31T17:20:24;15.77;;;8.10;;
73776;SDS011;62088;50.240;2.696;2022-10-31T17:22:53;18.70;;;8.73;;
73776;SDS011;62088;50.240;2.696;2022-10-31T17:25:22;18.38;;;8.75;;
73776;SDS011;62088;50.240;2.696;2022-10-31T17:27:50;20.40;;;9.38;;
73776;SDS011;62088;50.240;2.696;2022-10-31T17:30:18;12.25;;;8.20;;
73776;SDS011;62088;50.240;2.696;2022-10-31T17:32:46;23.52;;;9.80;;
73776;SDS011;62088;50.240;2.696;2022-10-31T17:35:14;20.73;;;8.45;;
73776;SDS011;62088;50.240;2.696;2022-10-31T17:37:42;19.15;;;9.18;;
73776;SDS011;62088;50.240;2.696;2022-10-31T17:40:14;19.75;;;9.13;;
73776;SDS011;62088;50.240;2.696;2022-10-31T17:42:47;19.77;;;9.38;;
73776;SDS011;62088;50.240;2.696;2022-10-31T17:45:15;23.60;;;10.02;;
73776;SDS011;62088;50.240;2.696;2022-10-31T17:47:42;23.20;;;9.95;;
73776;SDS011;62088;50.240;2.696;2022-10-31T17:50:16;21.42;;;10.02;;
73776;SDS011;62088;50.240;2.696;2022-10-31T17:52:44;26.05;;;9.93;;